Time;durP1;ratioP1;P1;durP2;ratioP2;P2;SDS_P1;SDS_P2;PMS_P1;PMS_P2;Temp;Humidity;BMP_temperature;BMP_pressure;BME280_temperature;BME280_humidity;BME280_pressure;Samples;Min_cycle;Max_cycle;Signal;HPM_P1;HPM_P2
2023/12/23 00:01:16;;;;;;;5.25;2.13;;;;;;;;;;6310018;28;20102;-69
2023/12/23 00:04:23;;;;;;;10.88;2.55;;;;;;;;;;6310556;28;20055;-69
2023/12/23 00:07:24;;;;;;;7.50;2.10;;;;;;;;;;6312625;28;20052;-70
2023/12/23 00:10:25;;;;;;;7.70;1.98;;;;;;;;;;6310689;28;20047;-61
2023/12/23 00:13:25;;;;;;;7.97;1.92;;;;;;;;;;6305798;28;20063;-61
2023/12/23 00:16:27;;;;;;;7.72;1.88;;;;;;;;;;6312541;28;20101;-61
2023/12/23 00:19:28;;;;;;;8.30;2.45;;;;;;;;;;6311231;28;20051;-61
2023/12/23 00:22:29;;;;;;;7.53;2.22;;;;;;;;;;6311279;28;20044;-61
2023/12/23 00:25:30;;;;;;;8.05;2.35;;;;;;;;;;6311753;28;20048;-62
2023/12/23 00:28:30;;;;;;;8.13;2.22;;;;;;;;;;6311636;28;20119;-63
2023/12/23 00:31:31;;;;;;;9.88;2.25;;;;;;;;;;6310377;28;20051;-59
2023/12/23 00:34:32;;;;;;;5.82;2.10;;;;;;;;;;6310486;28;20055;-60
2023/12/23 00:37:32;;;;;;;6.35;1.98;;;;;;;;;;6312906;28;20066;-61
2023/12/23 00:40:33;;;;;;;8.82;1.50;;;;;;;;;;6304468;28;20052;-60
2023/12/23 00:43:34;;;;;;;8.20;1.83;;;;;;;;;;6312509;28;20485;-61
2023/12/23 00:46:34;;;;;;;5.63;1.85;;;;;;;;;;6312468;28;20055;-62
2023/12/23 00:49:35;;;;;;;6.32;1.88;;;;;;;;;;6314091;28;20044;-59
2023/12/23 00:52:36;;;;;;;7.65;1.88;;;;;;;;;;6317483;28;20058;-63
2023/12/23 00:55:38;;;;;;;4.75;1.50;;;;;;;;;;6317687;28;20116;-61
2023/12/23 00:58:38;;;;;;;7.70;1.85;;;;;;;;;;6314873;28;20388;-61
2023/12/23 01:01:42;;;;;;;7.35;1.77;;;;;;;;;;6313528;28;20127;-62
2023/12/23 01:04:43;;;;;;;6.30;1.85;;;;;;;;;;6315700;28;20613;-62
2023/12/23 01:07:43;;;;;;;4.28;1.58;;;;;;;;;;6316019;28;20048;-61
2023/12/23 01:10:44;;;;;;;5.55;1.65;;;;;;;;;;6312687;28;20434;-61
2023/12/23 01:13:45;;;;;;;4.70;1.42;;;;;;;;;;6316121;28;20044;-60
2023/12/23 01:16:45;;;;;;;4.35;1.50;;;;;;;;;;6313111;28;20048;-61
2023/12/23 01:19:46;;;;;;;4.10;1.33;;;;;;;;;;6315356;28;20059;-61
2023/12/23 01:22:47;;;;;;;5.82;1.27;;;;;;;;;;6316170;28;20040;-62
2023/12/23 01:25:47;;;;;;;4.18;1.40;;;;;;;;;;6315172;28;20418;-61
2023/12/23 01:28:48;;;;;;;4.75;1.20;;;;;;;;;;6314664;28;20483;-60
2023/12/23 01:31:49;;;;;;;4.10;1.10;;;;;;;;;;6315590;28;20487;-61
2023/12/23 01:34:50;;;;;;;7.53;1.45;;;;;;;;;;6315902;28;20048;-61
2023/12/23 01:37:51;;;;;;;6.25;1.42;;;;;;;;;;6313840;28;20415;-61
2023/12/23 01:40:51;;;;;;;5.00;1.48;;;;;;;;;;6313590;28;20131;-61
2023/12/23 01:43:52;;;;;;;8.18;1.50;;;;;;;;;;6313848;28;20391;-61
2023/12/23 01:46:54;;;;;;;6.72;1.42;;;;;;;;;;6315591;28;20379;-61
2023/12/23 01:49:56;;;;;;;4.80;1.38;;;;;;;;;;6315834;28;20060;-62
2023/12/23 01:52:57;;;;;;;5.78;1.30;;;;;;;;;;6315665;28;20588;-59
2023/12/23 01:55:58;;;;;;;5.85;1.48;;;;;;;;;;6315107;28;20181;-61
2023/12/23 01:59:02;;;;;;;6.65;1.40;;;;;;;;;;6314147;28;20040;-61
2023/12/23 02:02:05;;;;;;;5.43;1.27;;;;;;;;;;6315150;28;20487;-61
2023/12/23 02:05:06;;;;;;;4.40;1.25;;;;;;;;;;6313278;28;20060;-61
2023/12/23 02:08:07;;;;;;;5.32;1.42;;;;;;;;;;6312821;28;20044;-61
2023/12/23 02:11:13;;;;;;;9.20;1.73;;;;;;;;;;6311760;28;20679;-64
2023/12/23 02:14:45;;;;;;;5.35;1.42;;;;;;;;;;6314475;28;20048;-60
2023/12/23 02:17:45;;;;;;;5.10;1.23;;;;;;;;;;6315343;28;20673;-58
2023/12/23 02:20:50;;;;;;;6.45;1.52;;;;;;;;;;6314612;28;20051;-60
2023/12/23 02:23:50;;;;;;;4.20;1.65;;;;;;;;;;6310115;28;20048;-61
2023/12/23 02:26:58;;;;;;;4.88;1.60;;;;;;;;;;6311497;28;20056;-61
2023/12/23 02:30:00;;;;;;;7.43;1.60;;;;;;;;;;6314017;28;20044;-61
2023/12/23 02:33:01;;;;;;;5.18;1.60;;;;;;;;;;6311807;28;20040;-61
2023/12/23 02:36:01;;;;;;;4.70;1.63;;;;;;;;;;6312517;28;20238;-60
2023/12/23 02:39:02;;;;;;;5.13;1.75;;;;;;;;;;6313208;28;20441;-61
2023/12/23 02:42:04;;;;;;;4.32;1.77;;;;;;;;;;6311773;28;20355;-61
2023/12/23 02:45:06;;;;;;;7.32;2.42;;;;;;;;;;6312725;28;20051;-61
2023/12/23 02:48:06;;;;;;;5.20;1.75;;;;;;;;;;6313646;28;20080;-61
2023/12/23 02:51:09;;;;;;;7.38;1.83;;;;;;;;;;6313030;28;20058;-62
2023/12/23 02:54:10;;;;;;;4.95;1.90;;;;;;;;;;6313513;28;20050;-61
2023/12/23 02:57:11;;;;;;;4.60;2.10;;;;;;;;;;6314793;28;20051;-61
2023/12/23 03:00:12;;;;;;;5.95;2.03;;;;;;;;;;6310729;28;20265;-62
2023/12/23 03:03:13;;;;;;;5.50;2.22;;;;;;;;;;6309179;28;20044;-59
2023/12/23 03:06:14;;;;;;;4.65;2.40;;;;;;;;;;6313641;28;20068;-59
2023/12/23 03:09:15;;;;;;;4.00;2.30;;;;;;;;;;6313254;28;20497;-61
2023/12/23 03:12:16;;;;;;;5.53;2.53;;;;;;;;;;6312556;28;20040;-61
2023/12/23 03:15:17;;;;;;;5.13;2.22;;;;;;;;;;6313300;28;20107;-63
2023/12/23 03:18:17;;;;;;;5.53;2.67;;;;;;;;;;6313946;28;20050;-63
2023/12/23 03:21:22;;;;;;;4.90;2.55;;;;;;;;;;6307776;28;20494;-63
2023/12/23 03:24:23;;;;;;;5.82;2.30;;;;;;;;;;6307454;28;20410;-63
2023/12/23 03:27:24;;;;;;;4.80;2.25;;;;;;;;;;6311274;28;20052;-63
2023/12/23 03:30:24;;;;;;;5.82;1.98;;;;;;;;;;6310815;28;20043;-62
2023/12/23 03:33:25;;;;;;;5.95;2.40;;;;;;;;;;6310683;28;20083;-63
2023/12/23 03:36:27;;;;;;;8.43;2.60;;;;;;;;;;6313479;28;20487;-63
2023/12/23 03:39:29;;;;;;;5.38;2.03;;;;;;;;;;6313899;28;20055;-64
2023/12/23 03:42:29;;;;;;;6.50;2.22;;;;;;;;;;6312479;28;20044;-61
2023/12/23 03:45:30;;;;;;;4.55;1.92;;;;;;;;;;6311508;28;20509;-61
2023/12/23 03:48:30;;;;;;;7.75;2.45;;;;;;;;;;6312538;28;20048;-59
2023/12/23 03:51:31;;;;;;;5.05;2.17;;;;;;;;;;6311886;28;20044;-61
2023/12/23 03:54:33;;;;;;;6.15;1.70;;;;;;;;;;6311429;28;20044;-61
2023/12/23 03:57:34;;;;;;;5.68;2.10;;;;;;;;;;6313147;28;20409;-61
2023/12/23 04:00:34;;;;;;;6.53;1.95;;;;;;;;;;6311180;28;20044;-61
2023/12/23 04:03:35;;;;;;;5.05;1.80;;;;;;;;;;6310741;28;20120;-61
2023/12/23 04:06:36;;;;;;;3.28;1.60;;;;;;;;;;6309657;28;20055;-62
2023/12/23 04:09:36;;;;;;;4.07;1.70;;;;;;;;;;6310873;28;20064;-62
2023/12/23 04:12:37;;;;;;;5.75;2.42;;;;;;;;;;6311947;28;20407;-61
2023/12/23 04:15:38;;;;;;;4.93;2.15;;;;;;;;;;6310506;28;20047;-63
2023/12/23 04:18:38;;;;;;;5.88;2.10;;;;;;;;;;6311707;28;20040;-62
2023/12/23 04:21:40;;;;;;;4.20;1.88;;;;;;;;;;6314265;28;20126;-62
2023/12/23 04:24:40;;;;;;;4.80;1.60;;;;;;;;;;6314306;28;20140;-64
2023/12/23 04:27:41;;;;;;;3.58;1.60;;;;;;;;;;6316810;28;20040;-61
2023/12/23 04:30:41;;;;;;;3.60;1.38;;;;;;;;;;6314361;28;20056;-62
2023/12/23 04:33:42;;;;;;;6.38;1.65;;;;;;;;;;6299182;28;20415;-60
2023/12/23 04:36:43;;;;;;;4.97;1.52;;;;;;;;;;6294109;28;20044;-61
2023/12/23 04:39:44;;;;;;;4.88;1.63;;;;;;;;;;6294023;28;20040;-61
2023/12/23 04:42:44;;;;;;;7.30;1.48;;;;;;;;;;6293835;28;20037;-62
2023/12/23 04:45:45;;;;;;;3.80;1.33;;;;;;;;;;6292887;28;20680;-61
2023/12/23 04:48:45;;;;;;;7.95;1.40;;;;;;;;;;6291418;28;20040;-66
2023/12/23 04:51:46;;;;;;;4.53;1.20;;;;;;;;;;6290492;28;20045;-61
2023/12/23 04:54:47;;;;;;;7.25;1.20;;;;;;;;;;6290622;28;20045;-59
2023/12/23 04:57:48;;;;;;;5.32;1.33;;;;;;;;;;6290948;28;20051;-61
2023/12/23 05:00:49;;;;;;;3.53;1.00;;;;;;;;;;6291298;28;20495;-60
2023/12/23 05:03:50;;;;;;;3.50;1.13;;;;;;;;;;6289331;28;20051;-61
2023/12/23 05:06:50;;;;;;;2.65;1.00;;;;;;;;;;6290309;28;20057;-60
2023/12/23 05:09:51;;;;;;;5.30;1.20;;;;;;;;;;6291884;28;20079;-76
2023/12/23 05:12:52;;;;;;;6.40;1.23;;;;;;;;;;6287994;28;20412;-79
2023/12/23 05:15:53;;;;;;;2.78;1.00;;;;;;;;;;6290944;28;20053;-73
2023/12/23 05:18:53;;;;;;;4.10;1.08;;;;;;;;;;6292307;28;20060;-69
2023/12/23 05:21:54;;;;;;;4.70;1.10;;;;;;;;;;6292078;28;20052;-67
2023/12/23 05:24:54;;;;;;;1.73;0.80;;;;;;;;;;6292000;28;20075;-63
2023/12/23 05:27:55;;;;;;;3.05;1.00;;;;;;;;;;6293411;28;20044;-62
2023/12/23 05:30:56;;;;;;;4.20;0.93;;;;;;;;;;6291764;28;20044;-61
2023/12/23 05:33:57;;;;;;;4.20;1.10;;;;;;;;;;6288774;28;20440;-61
2023/12/23 05:36:58;;;;;;;1.77;0.80;;;;;;;;;;6292613;28;20048;-70
2023/12/23 05:39:59;;;;;;;3.85;1.00;;;;;;;;;;6293053;28;20456;-72
2023/12/23 05:43:02;;;;;;;2.92;1.00;;;;;;;;;;6291799;28;20037;-69
2023/12/23 05:46:03;;;;;;;2.55;0.90;;;;;;;;;;6281044;28;20063;-63
2023/12/23 05:49:03;;;;;;;3.72;1.20;;;;;;;;;;6293269;28;20040;-69
2023/12/23 05:52:04;;;;;;;3.20;0.93;;;;;;;;;;6291983;28;20044;-61
2023/12/23 05:55:05;;;;;;;5.82;1.00;;;;;;;;;;6291942;28;20049;-61
2023/12/23 05:58:07;;;;;;;3.42;0.88;;;;;;;;;;6291214;28;20476;-61
2023/12/23 06:01:08;;;;;;;2.95;0.95;;;;;;;;;;6290919;28;20059;-63
2023/12/23 06:04:09;;;;;;;3.47;1.10;;;;;;;;;;6291494;28;20044;-61
2023/12/23 06:07:10;;;;;;;3.42;1.05;;;;;;;;;;6292544;28;20783;-59
2023/12/23 06:10:12;;;;;;;3.03;1.00;;;;;;;;;;6291788;28;20051;-61
2023/12/23 06:13:13;;;;;;;2.35;1.00;;;;;;;;;;6290702;28;20520;-63
2023/12/23 06:16:14;;;;;;;2.95;0.90;;;;;;;;;;6291936;28;20132;-60
2023/12/23 06:19:15;;;;;;;2.58;1.10;;;;;;;;;;6292564;28;20055;-60
2023/12/23 06:22:16;;;;;;;3.85;1.23;;;;;;;;;;6290949;28;20076;-62
2023/12/23 06:25:16;;;;;;;5.97;1.42;;;;;;;;;;6287756;28;20090;-63
2023/12/23 06:28:17;;;;;;;4.65;1.42;;;;;;;;;;6289641;28;20057;-62
2023/12/23 06:31:17;;;;;;;4.38;1.40;;;;;;;;;;6292169;28;20071;-62
2023/12/23 06:34:19;;;;;;;3.47;1.15;;;;;;;;;;6291498;28;20147;-74
2023/12/23 06:37:19;;;;;;;4.97;1.55;;;;;;;;;;6293133;28;20048;-74
2023/12/23 06:40:20;;;;;;;6.10;1.35;;;;;;;;;;6292189;28;20048;-69
2023/12/23 06:43:21;;;;;;;4.43;1.08;;;;;;;;;;6291028;28;20060;-67
2023/12/23 06:46:21;;;;;;;4.80;1.55;;;;;;;;;;6291843;28;20076;-60
2023/12/23 06:49:24;;;;;;;3.58;1.42;;;;;;;;;;6293450;28;20388;-60
2023/12/23 06:52:24;;;;;;;4.38;1.95;;;;;;;;;;6291935;28;20487;-66
2023/12/23 06:55:25;;;;;;;7.30;1.63;;;;;;;;;;6290827;28;20044;-67
2023/12/23 06:58:28;;;;;;;4.78;1.30;;;;;;;;;;6292895;28;20407;-59
2023/12/23 07:01:35;;;;;;;;;;;;;;;;;;6292443;28;20048;-63
2023/12/23 07:04:36;;;;;;;6.05;1.20;;;;;;;;;;6290792;28;20466;-64
2023/12/23 07:07:37;;;;;;;3.25;1.40;;;;;;;;;;6292452;28;20056;-67
2023/12/23 07:10:37;;;;;;;4.32;1.20;;;;;;;;;;6292226;28;20056;-61
2023/12/23 07:13:38;;;;;;;3.03;1.13;;;;;;;;;;6291010;28;20052;-62
2023/12/23 07:16:41;;;;;;;4.22;1.27;;;;;;;;;;6291777;28;20051;-61
2023/12/23 07:19:42;;;;;;;2.90;0.98;;;;;;;;;;6292071;28;20084;-60
2023/12/23 07:22:43;;;;;;;3.80;1.15;;;;;;;;;;6289604;28;20068;-61
2023/12/23 07:25:43;;;;;;;4.97;1.25;;;;;;;;;;6289555;28;20396;-62
2023/12/23 07:28:44;;;;;;;3.30;1.00;;;;;;;;;;6290754;28;20045;-59
2023/12/23 07:31:44;;;;;;;2.17;0.88;;;;;;;;;;6289143;28;20105;-62
2023/12/23 07:34:45;;;;;;;2.78;1.13;;;;;;;;;;6288794;28;20040;-55
2023/12/23 07:37:46;;;;;;;3.70;1.23;;;;;;;;;;6290968;28;20070;-68
2023/12/23 07:40:47;;;;;;;3.72;1.30;;;;;;;;;;6291777;28;20090;-63
2023/12/23 07:43:48;;;;;;;3.75;1.20;;;;;;;;;;6290190;28;20461;-66
2023/12/23 07:46:49;;;;;;;2.80;0.93;;;;;;;;;;6291594;28;20502;-68
2023/12/23 07:49:50;;;;;;;2.75;1.10;;;;;;;;;;6291996;28;20041;-66
2023/12/23 07:52:51;;;;;;;4.18;1.13;;;;;;;;;;6290557;28;20045;-62
2023/12/23 07:55:51;;;;;;;5.07;1.20;;;;;;;;;;6290505;28;20041;-65
2023/12/23 07:58:52;;;;;;;5.25;1.50;;;;;;;;;;6291429;28;20071;-69
2023/12/23 08:01:52;;;;;;;3.75;1.50;;;;;;;;;;6291204;28;20403;-67
2023/12/23 08:04:53;;;;;;;4.45;1.30;;;;;;;;;;6290058;28;20091;-64
2023/12/23 08:07:55;;;;;;;4.25;1.63;;;;;;;;;;6290652;28;20395;-62
2023/12/23 08:10:58;;;;;;;5.78;1.30;;;;;;;;;;6291005;28;20082;-66
2023/12/23 08:13:58;;;;;;;3.60;1.30;;;;;;;;;;6288284;28;20048;-66
2023/12/23 08:16:59;;;;;;;3.50;1.20;;;;;;;;;;6290711;28;20048;-65
2023/12/23 08:20:00;;;;;;;3.65;1.38;;;;;;;;;;6291003;28;20044;-64
2023/12/23 08:23:01;;;;;;;4.03;1.60;;;;;;;;;;6288875;28;20075;-66
2023/12/23 08:26:02;;;;;;;4.80;1.10;;;;;;;;;;6289136;28;20056;-65
2023/12/23 08:29:03;;;;;;;4.15;1.33;;;;;;;;;;6290353;28;20117;-65
2023/12/23 08:32:03;;;;;;;3.15;1.48;;;;;;;;;;6287873;28;20053;-65
2023/12/23 08:35:05;;;;;;;4.63;1.55;;;;;;;;;;6296403;28;20045;-65
2023/12/23 08:38:05;;;;;;;5.88;1.30;;;;;;;;;;6289096;28;20040;-65
2023/12/23 08:41:06;;;;;;;3.15;1.40;;;;;;;;;;6287410;28;20081;-66
2023/12/23 08:44:06;;;;;;;3.53;1.50;;;;;;;;;;6289646;28;20118;-66
2023/12/23 08:47:07;;;;;;;6.40;1.73;;;;;;;;;;6290659;28;20475;-67
2023/12/23 08:50:08;;;;;;;3.13;1.48;;;;;;;;;;6291186;28;20052;-67
2023/12/23 08:53:09;;;;;;;7.10;1.60;;;;;;;;;;6289002;28;20449;-68
2023/12/23 08:56:10;;;;;;;4.43;1.45;;;;;;;;;;6290293;28;20090;-67
2023/12/23 08:59:10;;;;;;;5.60;1.50;;;;;;;;;;6290586;28;20105;-66
2023/12/23 09:02:11;;;;;;;5.13;1.40;;;;;;;;;;6290172;28;20453;-70
2023/12/23 09:05:12;;;;;;;4.55;1.75;;;;;;;;;;6288271;28;20102;-65
2023/12/23 09:08:13;;;;;;;4.18;1.23;;;;;;;;;;6289869;28;20419;-64
2023/12/23 09:11:14;;;;;;;5.47;1.88;;;;;;;;;;6294769;28;20109;-68
2023/12/23 09:14:15;;;;;;;3.40;1.40;;;;;;;;;;6293216;28;20052;-66
2023/12/23 09:17:16;;;;;;;6.57;1.98;;;;;;;;;;6295220;28;20131;-65
2023/12/23 09:20:16;;;;;;;6.72;1.88;;;;;;;;;;6295020;28;20388;-64
2023/12/23 09:23:17;;;;;;;5.10;1.83;;;;;;;;;;6291900;28;20056;-63
2023/12/23 09:26:18;;;;;;;6.45;1.70;;;;;;;;;;6293873;28;20058;-63
2023/12/23 09:29:19;;;;;;;5.10;1.83;;;;;;;;;;6294222;28;20049;-62
2023/12/23 09:32:19;;;;;;;5.72;1.45;;;;;;;;;;6293231;28;20049;-65
2023/12/23 09:35:20;;;;;;;5.00;1.48;;;;;;;;;;6293499;28;20129;-62
2023/12/23 09:38:21;;;;;;;4.72;1.60;;;;;;;;;;6294142;28;20055;-67
2023/12/23 09:41:22;;;;;;;8.30;1.70;;;;;;;;;;6294306;28;20072;-67
2023/12/23 09:44:23;;;;;;;4.03;1.30;;;;;;;;;;6290525;28;20040;-62
2023/12/23 09:47:24;;;;;;;5.72;1.50;;;;;;;;;;6287248;28;20128;-64
2023/12/23 09:50:25;;;;;;;6.60;1.53;;;;;;;;;;6293195;28;20084;-65
2023/12/23 09:53:27;;;;;;;6.13;1.85;;;;;;;;;;6289254;28;20070;-70
2023/12/23 09:56:29;;;;;;;6.47;1.73;;;;;;;;;;6294111;28;20089;-65
2023/12/23 09:59:31;;;;;;;7.00;1.67;;;;;;;;;;6292906;28;20143;-64
2023/12/23 10:02:31;;;;;;;6.73;2.23;;;;;;;;;;6292844;28;20474;-65
2023/12/23 10:05:37;;;;;;;5.60;1.95;;;;;;;;;;6293119;28;20060;-69
2023/12/23 10:08:39;;;;;;;6.70;2.15;;;;;;;;;;6294002;28;20411;-66
2023/12/23 10:11:40;;;;;;;6.72;2.05;;;;;;;;;;6294227;28;20036;-64
2023/12/23 10:14:41;;;;;;;8.23;2.17;;;;;;;;;;6291091;28;20044;-64
2023/12/23 10:17:42;;;;;;;8.73;2.22;;;;;;;;;;6292242;28;20437;-65
2023/12/23 10:20:43;;;;;;;8.32;2.50;;;;;;;;;;6292757;28;20056;-72
2023/12/23 10:23:44;;;;;;;10.03;2.60;;;;;;;;;;6291814;28;20048;-68
2023/12/23 10:26:46;;;;;;;8.60;2.30;;;;;;;;;;6292583;28;20052;-64
2023/12/23 10:29:52;;;;;;;9.67;2.60;;;;;;;;;;6292193;28;20041;-62
2023/12/23 10:32:54;;;;;;;12.70;3.13;;;;;;;;;;6292354;28;20403;-63
2023/12/23 10:35:57;;;;;;;10.27;3.20;;;;;;;;;;6278413;28;20486;-65
2023/12/23 10:39:01;;;;;;;10.18;3.28;;;;;;;;;;6293122;28;20075;-62
2023/12/23 10:42:08;;;;;;;11.65;3.92;;;;;;;;;;6293130;28;20411;-64
2023/12/23 10:45:10;;;;;;;12.13;3.78;;;;;;;;;;6291313;28;20049;-64
2023/12/23 10:48:11;;;;;;;12.85;4.03;;;;;;;;;;6292939;28;20060;-62
2023/12/23 10:51:13;;;;;;;14.77;4.40;;;;;;;;;;6293051;28;20115;-66
2023/12/23 10:54:14;;;;;;;15.27;5.18;;;;;;;;;;6291433;28;20044;-62
2023/12/23 10:57:15;;;;;;;14.48;4.32;;;;;;;;;;6291567;28;20139;-61
2023/12/23 11:00:16;;;;;;;14.43;4.80;;;;;;;;;;6289113;28;20094;-63
2023/12/23 11:03:17;;;;;;;12.77;4.47;;;;;;;;;;6283196;28;20053;-64
2023/12/23 11:06:20;;;;;;;17.80;4.93;;;;;;;;;;6270748;28;20057;-62
2023/12/23 11:09:22;;;;;;;14.43;5.38;;;;;;;;;;6271078;28;20065;-63
2023/12/23 11:12:22;;;;;;;;;;;;;;;;;;6273135;28;20065;-62
2023/12/23 11:15:24;;;;;;;14.23;4.65;;;;;;;;;;6262950;28;20327;-62
2023/12/23 11:18:24;;;;;;;14.87;4.47;;;;;;;;;;6276951;28;20059;-62
2023/12/23 11:21:25;;;;;;;14.05;5.15;;;;;;;;;;6266625;28;20056;-65
2023/12/23 11:24:33;;;;;;;25.08;9.40;;;;;;;;;;6263977;28;20053;-72
2023/12/23 11:27:38;;;;;;;22.25;9.60;;;;;;;;;;6267551;28;20124;-64
2023/12/23 11:30:59;;;;;;;12.68;4.78;;;;;;;;;;6269905;28;20390;-67
2023/12/23 11:34:11;;;;;;;17.63;6.82;;;;;;;;;;6267456;28;20059;-66
2023/12/23 11:37:12;;;;;;;14.35;4.75;;;;;;;;;;6261050;28;20136;-66
2023/12/23 11:40:14;;;;;;;15.18;4.28;;;;;;;;;;6266478;28;20061;-66
2023/12/23 11:43:15;;;;;;;13.40;4.70;;;;;;;;;;6276426;28;20053;-62
2023/12/23 11:46:24;;;;;;;11.27;4.00;;;;;;;;;;6266425;28;20487;-65
2023/12/23 11:49:24;;;;;;;11.13;3.72;;;;;;;;;;6267874;28;20052;-64
2023/12/23 11:52:25;;;;;;;13.68;5.45;;;;;;;;;;6276051;28;20955;-65
2023/12/23 11:55:26;;;;;;;11.63;4.07;;;;;;;;;;6271865;28;20060;-65
2023/12/23 11:58:27;;;;;;;12.93;3.90;;;;;;;;;;6261917;28;20080;-65
2023/12/23 12:01:31;;;;;;;13.75;5.28;;;;;;;;;;6271942;28;20102;-68
2023/12/23 12:04:32;;;;;;;14.52;4.70;;;;;;;;;;6274829;28;20135;-65
2023/12/23 12:07:33;;;;;;;19.17;5.40;;;;;;;;;;6266621;28;20087;-62
2023/12/23 12:10:33;;;;;;;16.42;6.22;;;;;;;;;;6265489;28;20041;-67
2023/12/23 12:13:38;;;;;;;20.00;7.05;;;;;;;;;;6288262;28;20468;-66
2023/12/23 12:16:40;;;;;;;15.35;4.53;;;;;;;;;;6288001;28;20045;-67
2023/12/23 12:19:41;;;;;;;13.35;4.60;;;;;;;;;;6285107;28;20051;-67
2023/12/23 12:22:45;;;;;;;11.32;4.00;;;;;;;;;;6287901;28;20048;-67
2023/12/23 12:25:56;;;;;;;8.30;2.95;;;;;;;;;;6288943;28;20132;-67
2023/12/23 12:28:57;;;;;;;8.57;2.53;;;;;;;;;;6289344;28;20059;-67
2023/12/23 12:32:00;;;;;;;5.45;1.83;;;;;;;;;;6286767;28;20045;-67
2023/12/23 12:35:02;;;;;;;4.82;2.00;;;;;;;;;;6285371;28;20045;-67
2023/12/23 12:38:10;;;;;;;6.63;1.70;;;;;;;;;;6287520;28;20062;-68
2023/12/23 12:41:12;;;;;;;5.55;2.03;;;;;;;;;;6285406;28;20102;-68
2023/12/23 12:44:13;;;;;;;5.85;2.42;;;;;;;;;;6289258;28;20446;-66
2023/12/23 12:47:14;;;;;;;7.93;2.42;;;;;;;;;;6295155;28;20110;-67
2023/12/23 12:50:17;;;;;;;8.52;2.67;;;;;;;;;;6292423;28;20062;-67
2023/12/23 12:53:18;;;;;;;5.72;2.40;;;;;;;;;;6293967;28;20048;-67
2023/12/23 12:56:20;;;;;;;6.72;2.30;;;;;;;;;;6310297;28;20062;-67
2023/12/23 12:59:21;;;;;;;7.03;2.10;;;;;;;;;;6290619;28;20044;-67
2023/12/23 13:02:22;;;;;;;7.07;2.17;;;;;;;;;;6293704;28;20044;-67
2023/12/23 13:05:23;;;;;;;8.25;2.00;;;;;;;;;;6293448;28;20052;-67
2023/12/23 13:08:24;;;;;;;5.13;1.80;;;;;;;;;;6293172;28;20067;-67
2023/12/23 13:11:24;;;;;;;6.68;2.05;;;;;;;;;;6292392;28;20367;-67
2023/12/23 13:14:25;;;;;;;4.75;2.03;;;;;;;;;;6292324;28;20047;-67
2023/12/23 13:17:25;;;;;;;13.13;4.65;;;;;;;;;;6293170;28;20037;-67
2023/12/23 13:20:26;;;;;;;6.07;2.88;;;;;;;;;;6289761;28;20384;-68
2023/12/23 13:23:28;;;;;;;6.32;2.70;;;;;;;;;;6292374;28;20045;-67
2023/12/23 13:26:29;;;;;;;6.20;3.55;;;;;;;;;;6293097;28;20056;-67
2023/12/23 13:29:29;;;;;;;7.55;3.20;;;;;;;;;;6290751;28;20049;-67
2023/12/23 13:32:32;;;;;;;6.55;3.20;;;;;;;;;;6290971;28;20394;-67
2023/12/23 13:35:33;;;;;;;9.48;4.20;;;;;;;;;;6292790;28;20052;-67
2023/12/23 13:38:34;;;;;;;6.78;3.70;;;;;;;;;;6292857;28;20062;-67
2023/12/23 13:41:34;;;;;;;10.05;3.90;;;;;;;;;;6292177;28;20044;-67
2023/12/23 13:44:35;;;;;;;9.05;4.28;;;;;;;;;;6291964;28;20143;-67
2023/12/23 13:47:36;;;;;;;8.00;4.18;;;;;;;;;;6292327;28;20051;-67
2023/12/23 13:50:37;;;;;;;8.05;3.55;;;;;;;;;;6289157;28;21007;-67
2023/12/23 13:53:38;;;;;;;9.70;4.03;;;;;;;;;;6291993;28;20522;-66
2023/12/23 13:56:38;;;;;;;11.35;4.03;;;;;;;;;;6291945;28;20130;-66
2023/12/23 13:59:39;;;;;;;12.82;4.93;;;;;;;;;;6291605;28;20067;-67
2023/12/23 14:02:40;;;;;;;11.13;4.35;;;;;;;;;;6290239;28;20410;-67
2023/12/23 14:05:42;;;;;;;10.20;4.63;;;;;;;;;;6292197;28;20548;-66
2023/12/23 14:08:43;;;;;;;;;;;;;;;;;;6292640;28;20061;-67
2023/12/23 14:11:44;;;;;;;11.93;4.57;;;;;;;;;;6291061;28;19969;-67
2023/12/23 14:14:45;;;;;;;11.85;5.38;;;;;;;;;;6293411;28;20550;-67
2023/12/23 14:17:46;;;;;;;44.67;14.85;;;;;;;;;;6290506;28;20051;-67
2023/12/23 14:20:47;;;;;;;19.77;8.50;;;;;;;;;;6288919;28;20051;-67
2023/12/23 14:23:48;;;;;;;16.48;7.13;;;;;;;;;;6292013;28;20041;-68
2023/12/23 14:26:48;;;;;;;16.75;7.18;;;;;;;;;;6290160;28;20040;-67
2023/12/23 14:29:49;;;;;;;17.08;6.85;;;;;;;;;;6289378;28;20068;-67
2023/12/23 14:32:50;;;;;;;23.40;9.15;;;;;;;;;;6290803;28;20048;-67
2023/12/23 14:35:50;;;;;;;16.92;7.18;;;;;;;;;;6290579;28;20052;-68
2023/12/23 14:38:54;;;;;;;16.95;6.00;;;;;;;;;;6291094;28;20090;-68
2023/12/23 14:41:55;;;;;;;13.70;5.65;;;;;;;;;;6289449;28;20048;-67
2023/12/23 14:44:57;;;;;;;16.25;6.25;;;;;;;;;;6292737;28;20522;-67
2023/12/23 14:47:57;;;;;;;14.00;6.13;;;;;;;;;;6292068;28;20056;-67
2023/12/23 14:50:58;;;;;;;15.13;5.82;;;;;;;;;;6286354;28;20044;-67
2023/12/23 14:53:58;;;;;;;16.42;6.18;;;;;;;;;;6289690;28;20393;-67
2023/12/23 14:56:59;;;;;;;13.52;5.32;;;;;;;;;;6292360;28;20049;-66
2023/12/23 15:00:00;;;;;;;11.70;4.75;;;;;;;;;;6289525;28;20548;-66
2023/12/23 15:03:01;;;;;;;13.77;5.05;;;;;;;;;;6289822;28;20048;-66
2023/12/23 15:06:01;;;;;;;11.02;4.50;;;;;;;;;;6287490;28;20056;-66
2023/12/23 15:09:03;;;;;;;8.57;3.70;;;;;;;;;;6289345;28;20063;-66
2023/12/23 15:12:04;;;;;;;9.80;3.63;;;;;;;;;;6289245;28;20166;-66
2023/12/23 15:15:08;;;;;;;8.07;3.08;;;;;;;;;;6291321;28;20147;-67
2023/12/23 15:18:09;;;;;;;8.63;3.13;;;;;;;;;;6289069;28;20055;-67
2023/12/23 15:21:10;;;;;;;10.15;3.50;;;;;;;;;;6286714;28;20507;-66
2023/12/23 15:24:10;;;;;;;7.45;2.67;;;;;;;;;;6289682;28;20052;-66
2023/12/23 15:27:11;;;;;;;7.43;2.58;;;;;;;;;;6292209;28;20506;-66
2023/12/23 15:30:13;;;;;;;6.18;2.55;;;;;;;;;;6287309;28;20410;-67
2023/12/23 15:33:14;;;;;;;6.93;2.60;;;;;;;;;;6290182;28;20052;-66
2023/12/23 15:36:15;;;;;;;7.97;3.60;;;;;;;;;;6289328;28;20144;-66
2023/12/23 15:39:16;;;;;;;7.10;2.80;;;;;;;;;;6287477;28;20309;-66
2023/12/23 15:42:17;;;;;;;6.75;2.67;;;;;;;;;;6288326;28;20048;-65
2023/12/23 15:45:17;;;;;;;7.10;2.83;;;;;;;;;;6289170;28;20053;-65
2023/12/23 15:48:18;;;;;;;9.02;3.45;;;;;;;;;;6288023;28;20044;-66
2023/12/23 15:51:21;;;;;;;7.82;3.38;;;;;;;;;;6288288;28;20378;-65
2023/12/23 15:54:22;;;;;;;10.18;3.60;;;;;;;;;;6288882;28;20040;-65
2023/12/23 15:57:24;;;;;;;10.02;4.47;;;;;;;;;;6287276;28;20463;-65
2023/12/23 16:00:25;;;;;;;9.10;3.90;;;;;;;;;;6287572;28;20036;-65
2023/12/23 16:03:25;;;;;;;7.50;3.58;;;;;;;;;;6287987;28;20050;-68
2023/12/23 16:06:27;;;;;;;10.30;4.25;;;;;;;;;;6264995;28;20080;-65
2023/12/23 16:09:28;;;;;;;12.25;4.72;;;;;;;;;;6265247;28;20056;-66
2023/12/23 16:12:28;;;;;;;8.63;3.50;;;;;;;;;;6267133;28;20048;-63
2023/12/23 16:15:29;;;;;;;7.53;3.60;;;;;;;;;;6268412;28;20080;-68
2023/12/23 16:18:30;;;;;;;9.05;3.33;;;;;;;;;;6262412;28;20052;-65
2023/12/23 16:21:31;;;;;;;7.68;3.40;;;;;;;;;;6264838;28;20401;-67
2023/12/23 16:24:32;;;;;;;7.22;3.15;;;;;;;;;;6272215;28;20688;-70
2023/12/23 16:27:34;;;;;;;7.90;3.22;;;;;;;;;;6264281;28;20069;-65
2023/12/23 16:30:38;;;;;;;7.07;2.90;;;;;;;;;;6264412;28;20084;-68
2023/12/23 16:33:40;;;;;;;7.60;3.13;;;;;;;;;;6265930;28;20044;-67
2023/12/23 16:36:42;;;;;;;8.48;3.53;;;;;;;;;;6265625;28;20056;-68
2023/12/23 16:39:43;;;;;;;9.18;4.57;;;;;;;;;;6263190;28;20191;-72
2023/12/23 16:42:43;;;;;;;8.15;4.03;;;;;;;;;;6267724;28;20524;-71
2023/12/23 16:45:44;;;;;;;9.18;4.22;;;;;;;;;;6265662;28;20075;-68
2023/12/23 16:48:45;;;;;;;13.70;5.38;;;;;;;;;;6270579;28;20403;-70
2023/12/23 16:51:46;;;;;;;16.15;5.88;;;;;;;;;;6264331;28;20049;-70
2023/12/23 16:54:47;;;;;;;14.02;4.97;;;;;;;;;;6265192;28;20053;-71
2023/12/23 16:57:47;;;;;;;11.15;5.30;;;;;;;;;;6270486;28;20079;-69
2023/12/23 17:00:48;;;;;;;10.85;5.07;;;;;;;;;;6269297;28;20059;-66
2023/12/23 17:03:49;;;;;;;14.38;5.20;;;;;;;;;;6267230;28;20060;-70
2023/12/23 17:06:50;;;;;;;12.85;4.57;;;;;;;;;;6270303;28;20073;-70
2023/12/23 17:09:51;;;;;;;10.40;4.65;;;;;;;;;;6262424;28;20090;-66
2023/12/23 17:12:52;;;;;;;13.25;5.63;;;;;;;;;;6265420;28;20048;-69
2023/12/23 17:15:53;;;;;;;10.55;4.65;;;;;;;;;;6261966;28;20488;-66
2023/12/23 17:18:54;;;;;;;11.25;4.90;;;;;;;;;;6265644;28;20048;-70
2023/12/23 17:21:55;;;;;;;12.55;6.25;;;;;;;;;;6267626;28;20144;-69
2023/12/23 17:24:55;;;;;;;9.23;4.80;;;;;;;;;;6265405;28;20033;-72
2023/12/23 17:27:56;;;;;;;11.73;4.63;;;;;;;;;;6271398;28;20045;-69
2023/12/23 17:30:57;;;;;;;13.95;6.40;;;;;;;;;;6273339;28;20423;-68
2023/12/23 17:33:58;;;;;;;13.05;6.05;;;;;;;;;;6270225;28;20076;-68
2023/12/23 17:36:58;;;;;;;19.55;9.73;;;;;;;;;;6269751;28;20056;-67
2023/12/23 17:39:59;;;;;;;25.48;11.90;;;;;;;;;;6270046;28;20049;-69
2023/12/23 17:43:00;;;;;;;28.33;13.77;;;;;;;;;;6276694;28;20044;-67
2023/12/23 17:46:01;;;;;;;20.70;10.05;;;;;;;;;;6269622;28;20099;-65
2023/12/23 17:49:02;;;;;;;16.25;7.38;;;;;;;;;;6269408;28;20052;-64
2023/12/23 17:52:03;;;;;;;18.67;8.27;;;;;;;;;;6271939;28;20045;-64
2023/12/23 17:55:04;;;;;;;19.60;8.40;;;;;;;;;;6267482;28;20053;-63
2023/12/23 17:58:05;;;;;;;13.97;5.37;;;;;;;;;;6275691;28;20053;-62
2023/12/23 18:01:06;;;;;;;10.40;4.80;;;;;;;;;;6270720;28;20056;-66
2023/12/23 18:04:07;;;;;;;13.27;4.97;;;;;;;;;;6270666;28;20636;-64